Time,TemperatureF,DewpointF,PressureIn,WindDirection,WindDirectionDegrees,WindSpeedMPH,WindSpeedGustMPH,Humidity,HourlyPrecipIn,Conditions,Clouds,dailyrainin,SoftwareType,DateUTC
2014-11-27 00:05:00,54.9,8.0,30.18,NNW,342,2.0,2.0,15,0.00,,,0.00,Wunderground PWS Mod,2014-11-27 05:05:00,
2014-11-27 00:10:00,54.9,8.0,30.18,NW,316,2.0,2.0,15,0.00,,,0.00,Wunderground PWS Mod,2014-11-27 05:10:00,
2014-11-27 00:20:00,54.9,8.0,30.18,NW,315,2.0,7.0,15,0.00,,,0.00,Wunderground PWS Mod,2014-11-27 05:20:00,
2014-11-27 00:25:00,54.8,8.0,30.18,NW,320,2.0,2.0,15,0.00,,,0.00,Wunderground PWS Mod,2014-11-27 05:25:00,
2014-11-27 00:30:00,54.7,7.9,30.18,NW,309,1.0,1.0,15,0.00,,,0.00,Wunderground PWS Mod,2014-11-27 05:30:00,
2014-11-27 00:35:00,54.7,7.9,30.18,NW,312,1.0,7.0,15,0.00,,,0.00,Wunderground PWS Mod,2014-11-27 05:35:00,
2014-11-27 00:45:00,54.6,7.8,30.18,NNW,327,1.0,1.0,15,0.00,,,0.00,Wunderground PWS Mod,2014-11-27 05:45:00,
2014-11-27 00:50:00,54.5,7.7,30.18,NNW,328,2.0,7.0,15,0.00,,,0.00,Wunderground PWS Mod,2014-11-27 05:50:00,
2014-11-27 00:55:00,54.4,7.6,30.18,NW,309,1.0,7.0,15,0.00,,,0.00,Wunderground PWS Mod,2014-11-27 05:55:00,
2014-11-27 01:05:00,54.3,7.5,30.18,NW,322,1.0,1.0,15,0.00,,,0.00,Wunderground PWS Mod,2014-11-27 06:05:00,
2014-11-27 01:15:00,54.2,7.5,30.18,NW,317,1.0,1.0,15,0.00,,,0.00,Wunderground PWS Mod,2014-11-27 06:15:00,
2014-11-27 01:25:00,54.0,7.3,30.18,NW,315,0.0,3.0,15,0.00,,,0.00,Wunderground PWS Mod,2014-11-27 06:25:00,
2014-11-27 01:35:00,53.9,7.2,30.17,NW,324,2.0,5.0,15,0.00,,,0.00,Wunderground PWS Mod,2014-11-27 06:35:00,
2014-11-27 01:40:00,53.8,7.1,30.17,WNW,300,2.0,8.0,15,0.00,,,0.00,Wunderground PWS Mod,2014-11-27 06:40:00,
2014-11-27 01:45:00,53.8,7.1,30.17,NW,304,2.0,7.0,15,0.00,,,0.00,Wunderground PWS Mod,2014-11-27 06:45:00,
2014-11-27 01:55:00,53.7,7.1,30.17,WNW,298,2.0,2.0,15,0.00,,,0.00,Wunderground PWS Mod,2014-11-27 06:55:00,
2014-11-27 02:00:00,53.7,7.1,30.17,WNW,293,1.0,5.0,15,0.00,,,0.00,Wunderground PWS Mod,2014-11-27 07:00:00,
2014-11-27 02:05:00,53.5,6.9,30.17,NW,312,1.0,1.0,15,0.00,,,0.00,Wunderground PWS Mod,2014-11-27 07:05:00,
2014-11-27 02:15:00,53.4,6.8,30.17,NW,320,1.0,1.0,15,0.00,,,0.00,Wunderground PWS Mod,2014-11-27 07:15:00,
2014-11-27 02:20:00,53.3,6.7,30.17,NW,319,2.0,2.0,15,0.00,,,0.00,Wunderground PWS Mod,2014-11-27 07:20:00,
2014-11-27 02:25:00,53.3,6.7,30.17,NW,318,2.0,2.0,15,0.00,,,0.00,Wunderground PWS Mod,2014-11-27 07:25:00,
2014-11-27 02:35:00,53.2,6.7,30.17,NNW,328,2.0,7.0,15,0.00,,,0.00,Wunderground PWS Mod,2014-11-27 07:35:00,
2014-11-27 02:45:00,53.2,6.7,30.18,NW,311,2.0,2.0,15,0.00,,,0.00,Wunderground PWS Mod,2014-11-27 07:45:00,
2014-11-27 02:50:00,53.2,6.7,30.18,NW,315,1.0,3.0,15,0.00,,,0.00,Wunderground PWS Mod,2014-11-27 07:50:00,
2014-11-27 03:00:00,53.1,6.6,30.19,WNW,302,1.0,1.0,15,0.00,,,0.00,Wunderground PWS Mod,2014-11-27 08:00:00,
2014-11-27 03:05:00,53.1,6.6,30.19,WNW,302,1.0,1.0,15,0.00,,,0.00,Wunderground PWS Mod,2014-11-27 08:05:00,
2014-11-27 03:10:00,53.0,6.5,30.19,WNW,295,1.0,6.0,15,0.00,,,0.00,Wunderground PWS Mod,2014-11-27 08:10:00,
2014-11-27 03:15:00,52.9,6.4,30.19,WNW,297,1.0,1.0,15,0.00,,,0.00,Wunderground PWS Mod,2014-11-27 08:15:00,
2014-11-27 03:25:00,52.8,6.3,30.19,NW,314,1.0,1.0,15,0.00,,,0.00,Wunderground PWS Mod,2014-11-27 08:25:00,
2014-11-27 03:35:00,52.7,6.3,30.19,NW,311,0.0,0.0,15,0.00,,,0.00,Wunderground PWS Mod,2014-11-27 08:35:00,
2014-11-27 03:40:00,52.7,6.3,30.19,NW,319,1.0,1.0,15,0.00,,,0.00,Wunderground PWS Mod,2014-11-27 08:40:00,
2014-11-27 03:45:00,52.7,6.3,30.19,NW,316,1.0,1.0,15,0.00,,,0.00,Wunderground PWS Mod,2014-11-27 08:45:00,
2014-11-27 03:55:00,52.5,6.1,30.19,NW,314,1.0,1.0,15,0.00,,,0.00,Wunderground PWS Mod,2014-11-27 08:55:00,
2014-11-27 04:05:00,52.3,5.9,30.19,NW,309,1.0,4.0,15,0.00,,,0.00,Wunderground PWS Mod,2014-11-27 09:05:00,
2014-11-27 04:10:00,52.3,5.9,30.19,NW,311,1.0,7.0,15,0.00,,,0.00,Wunderground PWS Mod,2014-11-27 09:10:00,
2014-11-27 04:15:00,52.2,5.9,30.19,WNW,302,2.0,6.0,15,0.00,,,0.00,Wunderground PWS Mod,2014-11-27 09:15:00,
2014-11-27 04:25:00,52.0,5.7,30.19,WNW,302,1.0,1.0,15,0.00,,,0.00,Wunderground PWS Mod,2014-11-27 09:25:00,
2014-11-27 04:30:00,52.0,5.7,30.20,WNW,303,1.0,4.0,15,0.00,,,0.00,Wunderground PWS Mod,2014-11-27 09:30:00,
2014-11-27 04:35:00,51.9,5.6,30.20,WNW,303,1.0,4.0,15,0.00,,,0.00,Wunderground PWS Mod,2014-11-27 09:35:00,
2014-11-27 04:45:00,51.8,5.5,30.20,NW,304,1.0,1.0,15,0.00,,,0.00,Wunderground PWS Mod,2014-11-27 09:45:00,
2014-11-27 04:50:00,51.8,5.5,30.20,NW,313,1.0,1.0,15,0.00,,,0.00,Wunderground PWS Mod,2014-11-27 09:50:00,
2014-11-27 04:55:00,51.7,5.4,30.20,NW,312,1.0,3.0,15,0.00,,,0.00,Wunderground PWS Mod,2014-11-27 09:55:00,
2014-11-27 05:05:00,51.6,5.4,30.20,NW,304,1.0,5.0,15,0.00,,,0.00,Wunderground PWS Mod,2014-11-27 10:05:00,
2014-11-27 05:10:00,51.6,5.4,30.20,NW,322,2.0,4.0,15,0.00,,,0.00,Wunderground PWS Mod,2014-11-27 10:10:00,
2014-11-27 05:15:00,51.5,5.3,30.20,NW,316,2.0,4.0,15,0.00,,,0.00,Wunderground PWS Mod,2014-11-27 10:15:00,
2014-11-27 05:25:00,51.5,5.3,30.20,NW,320,1.0,7.0,15,0.00,,,0.00,Wunderground PWS Mod,2014-11-27 10:25:00,
2014-11-27 05:30:00,51.6,5.4,30.21,NW,320,2.0,7.0,15,0.00,,,0.00,Wunderground PWS Mod,2014-11-27 10:30:00,
2014-11-27 05:40:00,51.6,5.4,30.21,NW,304,2.0,2.0,15,0.00,,,0.00,Wunderground PWS Mod,2014-11-27 10:40:00,
2014-11-27 05:45:00,51.7,5.4,30.22,NNW,338,2.0,11.0,15,0.00,,,0.00,Wunderground PWS Mod,2014-11-27 10:45:00,
2014-11-27 05:50:00,51.7,5.4,30.22,NNW,338,2.0,6.0,15,0.00,,,0.00,Wunderground PWS Mod,2014-11-27 10:50:00,
2014-11-27 06:00:00,51.8,5.5,30.23,NW,323,2.0,14.0,15,0.00,,,0.00,Wunderground PWS Mod,2014-11-27 11:00:00,
2014-11-27 06:05:00,51.8,5.5,30.23,NW,311,2.0,2.0,15,0.00,,,0.00,Wunderground PWS Mod,2014-11-27 11:05:00,
2014-11-27 06:15:00,51.8,5.5,30.23,NW,319,1.0,1.0,15,0.00,,,0.00,Wunderground PWS Mod,2014-11-27 11:15:00,